createdAt,value
2019-02-17T00:00:39.982Z,60.83
2019-02-17T00:03:09.262Z,61.80
2019-02-17T00:05:38.533Z,57.50
2019-02-17T00:08:07.770Z,49.63
2019-02-17T00:10:37.019Z,53.53
2019-02-17T00:13:06.325Z,52.43
2019-02-17T00:15:35.689Z,49.30
2019-02-17T00:18:05.030Z,46.30
2019-02-17T00:20:34.271Z,45.73
2019-02-17T00:23:03.541Z,43.17
2019-02-17T00:25:32.873Z,47.03
2019-02-17T00:28:02.246Z,60.50
2019-02-17T00:30:31.569Z,72.07
2019-02-17T00:33:00.849Z,95.23
2019-02-17T00:35:30.112Z,88.93
2019-02-17T00:37:59.413Z,80.50
2019-02-17T00:40:28.649Z,57.20
2019-02-17T00:42:57.961Z,52.27
2019-02-17T00:45:27.190Z,53.30
2019-02-17T00:47:56.469Z,48.00
2019-02-17T00:50:26.253Z,48.30
2019-02-17T00:52:55.533Z,46.10
2019-02-17T00:55:24.797Z,43.10
2019-02-17T00:57:54.126Z,40.73
2019-02-17T01:00:23.409Z,41.53
2019-02-17T01:02:52.898Z,42.37
2019-02-17T01:05:22.342Z,37.77
2019-02-17T01:07:51.638Z,41.93
2019-02-17T01:10:20.881Z,47.93
2019-02-17T01:12:50.261Z,43.57
2019-02-17T01:15:19.576Z,39.80
2019-02-17T01:17:49.152Z,40.70
2019-02-17T01:20:18.411Z,42.83
2019-02-17T01:22:47.731Z,44.67
2019-02-17T01:25:16.979Z,39.97
2019-02-17T01:27:46.336Z,39.90
2019-02-17T01:30:15.803Z,39.53
2019-02-17T01:32:45.103Z,40.50
2019-02-17T01:35:14.579Z,39.10
2019-02-17T01:37:43.866Z,40.00
2019-02-17T01:40:13.816Z,42.67
2019-02-17T01:42:43.185Z,39.50
2019-02-17T01:45:12.670Z,41.97
2019-02-17T01:47:42.030Z,42.60
2019-02-17T01:50:11.342Z,43.27
2019-02-17T01:52:40.742Z,38.83
2019-02-17T01:55:09.989Z,39.50
2019-02-17T01:57:39.310Z,36.63
2019-02-17T02:00:10.672Z,36.43
2019-02-17T02:02:39.938Z,35.70
2019-02-17T02:05:09.317Z,35.70
2019-02-17T02:07:38.565Z,36.70
2019-02-17T02:10:08.285Z,37.60
2019-02-17T02:12:37.544Z,36.57
2019-02-17T02:15:07.420Z,36.53
2019-02-17T02:17:36.741Z,34.27
2019-02-17T02:20:07.436Z,34.10
2019-02-17T02:22:36.736Z,36.50
2019-02-17T02:25:06.371Z,35.30
2019-02-17T02:27:35.712Z,36.83
2019-02-17T02:30:06.138Z,35.97
2019-02-17T02:32:35.460Z,37.27
2019-02-17T02:35:05.013Z,79.77
2019-02-17T02:37:34.271Z,75.40
2019-02-17T02:40:03.578Z,54.90
2019-02-17T02:42:32.855Z,45.97
2019-02-17T02:45:02.177Z,42.73
2019-02-17T02:47:31.450Z,41.40
2019-02-17T02:50:00.730Z,41.00
2019-02-17T02:52:30.130Z,38.90
2019-02-17T02:54:59.458Z,39.60
2019-02-17T02:57:28.765Z,35.60
2019-02-17T02:59:58.104Z,27.07
2019-02-17T03:02:27.487Z,35.33
2019-02-17T03:04:56.735Z,38.30
2019-02-17T03:07:26.043Z,34.30
2019-02-17T03:09:55.379Z,33.97
2019-02-17T03:12:24.749Z,34.60
2019-02-17T03:14:54.047Z,31.50
2019-02-17T03:17:23.403Z,30.70
2019-02-17T03:19:52.662Z,30.07
2019-02-17T03:22:21.986Z,27.90
2019-02-17T03:24:51.233Z,27.73
2019-02-17T03:27:20.497Z,28.27
2019-02-17T03:29:49.746Z,27.53
2019-02-17T03:32:19.030Z,27.50
2019-02-17T03:34:48.367Z,25.70
2019-02-17T03:37:18.155Z,26.50
2019-02-17T03:39:47.490Z,28.57
2019-02-17T03:42:16.782Z,27.10
2019-02-17T03:44:46.028Z,30.33
2019-02-17T03:47:15.287Z,36.63
2019-02-17T03:49:44.667Z,102.30
2019-02-17T03:52:13.971Z,94.20
2019-02-17T03:54:43.272Z,75.40
2019-02-17T03:57:12.596Z,62.27
2019-02-17T03:59:41.906Z,56.80
2019-02-17T04:02:11.067Z,51.50
2019-02-17T04:04:40.354Z,42.17
2019-02-17T04:07:09.661Z,38.97
2019-02-17T04:09:38.964Z,38.33
2019-02-17T04:12:08.285Z,37.27
2019-02-17T04:14:37.648Z,36.70
2019-02-17T04:17:06.874Z,31.17
2019-02-17T04:19:36.150Z,45.63
2019-02-17T04:22:05.409Z,64.10
2019-02-17T04:24:34.815Z,88.00
2019-02-17T04:27:04.078Z,60.70
2019-02-17T04:29:33.365Z,38.73
2019-02-17T04:32:02.645Z,34.37
2019-02-17T04:34:31.890Z,34.90
2019-02-17T04:37:01.157Z,33.77
2019-02-17T04:39:30.389Z,34.53
2019-02-17T04:41:59.644Z,32.43
2019-02-17T04:44:28.938Z,31.57
2019-02-17T04:46:58.252Z,29.20
2019-02-17T04:49:27.552Z,36.47
2019-02-17T04:51:56.841Z,33.63
2019-02-17T04:54:26.167Z,32.30
2019-02-17T04:56:55.445Z,30.70
2019-02-17T04:59:24.796Z,29.77
2019-02-17T05:01:54.056Z,32.53
2019-02-17T05:04:23.436Z,31.80
2019-02-17T05:06:52.780Z,32.73
2019-02-17T05:09:22.064Z,31.97
2019-02-17T05:11:51.416Z,50.03
2019-02-17T05:14:20.672Z,42.23
2019-02-17T05:16:49.928Z,39.40
2019-02-17T05:19:19.187Z,34.23
2019-02-17T05:21:48.540Z,33.73
2019-02-17T05:24:17.781Z,32.27
2019-02-17T05:26:47.068Z,31.40
2019-02-17T05:29:16.356Z,32.23
2019-02-17T05:31:45.699Z,31.10
2019-02-17T05:34:14.958Z,30.07
2019-02-17T05:36:44.224Z,32.10
2019-02-17T05:39:13.563Z,29.30
2019-02-17T05:41:42.881Z,26.50
2019-02-17T05:44:12.263Z,27.20
2019-02-17T05:46:41.511Z,25.20
2019-02-17T05:49:10.858Z,25.93
2019-02-17T05:51:40.343Z,24.73
2019-02-17T05:54:10.020Z,27.07
2019-02-17T05:56:39.351Z,27.80
2019-02-17T05:59:08.665Z,29.10
2019-02-17T06:01:38.003Z,30.37
2019-02-17T06:04:07.328Z,26.60
2019-02-17T06:06:36.580Z,28.60
2019-02-17T06:09:06.596Z,33.27
2019-02-17T06:11:35.955Z,30.00
2019-02-17T06:14:05.300Z,31.67
2019-02-17T06:16:34.655Z,65.63
2019-02-17T06:19:03.959Z,72.90
2019-02-17T06:21:33.284Z,59.97
2019-02-17T06:24:02.663Z,54.60
2019-02-17T06:26:31.923Z,49.10
2019-02-17T06:29:01.177Z,42.87
2019-02-17T06:31:30.555Z,46.03
2019-02-17T06:33:59.875Z,53.43
2019-02-17T06:36:29.187Z,40.30
2019-02-17T06:38:58.465Z,47.17
2019-02-17T06:41:28.015Z,46.40
2019-02-17T06:43:57.263Z,45.63
2019-02-17T06:46:31.224Z,47.73
2019-02-17T06:49:00.499Z,45.03
2019-02-17T06:51:29.799Z,51.20
2019-02-17T06:53:59.111Z,48.87
2019-02-17T06:56:41.926Z,53.03
2019-02-17T06:59:11.219Z,51.97
2019-02-17T07:01:40.459Z,49.17
2019-02-17T07:04:09.770Z,46.20
2019-02-17T07:06:42.794Z,50.67
2019-02-17T07:09:12.015Z,46.00
2019-02-17T07:11:41.999Z,43.03
2019-02-17T07:14:11.279Z,46.67
2019-02-17T07:16:41.067Z,26.57
2019-02-17T07:19:11.259Z,22.53
2019-02-17T07:21:40.515Z,24.90
2019-02-17T07:24:09.771Z,23.07
2019-02-17T07:26:39.059Z,22.23
2019-02-17T07:29:08.374Z,21.23
2019-02-17T07:31:37.639Z,21.33
2019-02-17T07:34:08.726Z,19.60
2019-02-17T07:36:38.081Z,20.80
2019-02-17T07:39:07.443Z,18.67
2019-02-17T07:41:36.775Z,21.67
2019-02-17T07:44:06.055Z,20.10
2019-02-17T07:46:35.303Z,19.80
2019-02-17T07:49:04.736Z,21.07
2019-02-17T07:51:34.042Z,22.20
2019-02-17T07:54:03.327Z,21.97
2019-02-17T07:56:32.675Z,21.77
2019-02-17T07:59:01.970Z,19.97
2019-02-17T08:01:31.302Z,21.63
2019-02-17T08:04:00.522Z,23.63
2019-02-17T08:06:29.754Z,22.87
2019-02-17T08:09:01.074Z,21.13
2019-02-17T08:11:30.378Z,22.40
2019-02-17T08:13:59.766Z,22.77
2019-02-17T08:16:29.022Z,19.80
2019-02-17T08:18:58.384Z,18.00
2019-02-17T08:21:27.629Z,18.07
2019-02-17T08:23:56.991Z,16.17
2019-02-17T08:26:26.246Z,17.90
2019-02-17T08:28:55.606Z,17.87
2019-02-17T08:31:24.943Z,20.40
2019-02-17T08:33:54.405Z,19.00
2019-02-17T08:36:23.674Z,20.77
2019-02-17T08:38:52.967Z,22.03
2019-02-17T08:41:22.222Z,22.83
2019-02-17T08:43:51.686Z,26.57
2019-02-17T08:46:20.993Z,21.33
2019-02-17T08:48:50.246Z,19.10
2019-02-17T08:51:19.532Z,16.50
2019-02-17T08:53:48.894Z,16.63
2019-02-17T08:56:19.011Z,15.30
2019-02-17T08:58:49.718Z,14.63
2019-02-17T09:01:19.043Z,14.67
2019-02-17T09:03:48.302Z,16.43
2019-02-17T09:06:17.513Z,14.63
2019-02-17T09:08:47.017Z,13.83
2019-02-17T09:11:16.477Z,14.83
2019-02-17T09:13:45.767Z,14.77
2019-02-17T09:16:15.332Z,15.83
2019-02-17T09:18:44.697Z,16.43
2019-02-17T09:21:13.982Z,16.40
2019-02-17T09:23:43.233Z,16.60
2019-02-17T09:26:12.521Z,17.67
2019-02-17T09:28:41.881Z,18.23
2019-02-17T09:31:11.201Z,17.47
2019-02-17T09:33:40.565Z,17.60
2019-02-17T09:36:09.845Z,19.13
2019-02-17T09:38:39.156Z,19.07
2019-02-17T09:41:09.276Z,18.13
2019-02-17T09:43:38.512Z,20.93
2019-02-17T09:46:07.780Z,18.43
2019-02-17T09:48:37.076Z,18.53
2019-02-17T09:51:06.428Z,19.57
2019-02-17T09:53:35.880Z,19.63
2019-02-17T09:56:05.133Z,16.40
2019-02-17T09:58:34.420Z,17.33
2019-02-17T10:01:03.900Z,16.93
2019-02-17T10:03:33.264Z,15.93
2019-02-17T10:06:02.618Z,16.97
2019-02-17T10:08:31.871Z,15.87
2019-02-17T10:11:01.140Z,15.70
2019-02-17T10:13:30.536Z,15.03
2019-02-17T10:15:59.844Z,13.93
2019-02-17T10:18:29.175Z,15.27
2019-02-17T10:20:58.576Z,14.70
2019-02-17T10:23:27.899Z,15.93
2019-02-17T10:25:57.192Z,14.30
2019-02-17T10:28:26.471Z,13.37
2019-02-17T10:30:55.885Z,12.90
2019-02-17T10:33:25.127Z,14.07
2019-02-17T10:35:54.535Z,13.80
2019-02-17T10:38:23.859Z,16.17
2019-02-17T10:40:53.171Z,13.73
2019-02-17T10:43:22.427Z,15.00
2019-02-17T10:45:51.895Z,13.73
2019-02-17T10:48:21.303Z,14.20
2019-02-17T10:50:50.599Z,16.33
2019-02-17T10:53:19.967Z,12.87
2019-02-17T10:55:49.243Z,13.30
2019-02-17T10:58:18.527Z,12.17
2019-02-17T11:00:48.015Z,14.77
2019-02-17T11:03:17.342Z,13.00
2019-02-17T11:05:46.658Z,13.00
2019-02-17T11:08:15.971Z,13.33
2019-02-17T11:10:45.238Z,13.73
2019-02-17T11:13:14.537Z,13.37
2019-02-17T11:15:43.918Z,12.07
2019-02-17T11:18:13.224Z,12.60
2019-02-17T11:20:42.479Z,12.70
2019-02-17T11:23:11.801Z,21.37
2019-02-17T11:25:41.054Z,27.83
2019-02-17T11:28:10.370Z,20.70
2019-02-17T11:30:39.694Z,14.20
2019-02-17T11:33:09.018Z,12.53
2019-02-17T11:35:38.251Z,16.77
2019-02-17T11:38:07.563Z,17.00
2019-02-17T11:40:36.814Z,21.30
2019-02-17T11:43:06.118Z,15.70
2019-02-17T11:45:35.494Z,17.67
2019-02-17T11:48:04.811Z,17.13
2019-02-17T11:50:34.070Z,15.27
2019-02-17T11:53:03.402Z,15.93
2019-02-17T11:55:32.690Z,17.80
2019-02-17T11:58:02.098Z,14.93
2019-02-17T12:00:31.426Z,11.70
2019-02-17T12:03:07.526Z,12.20
2019-02-17T12:05:32.110Z,10.83
2019-02-17T12:08:01.430Z,14.07
2019-02-17T12:10:30.850Z,11.93
2019-02-17T12:13:00.738Z,11.30
2019-02-17T12:15:29.998Z,12.47
2019-02-17T12:17:59.421Z,11.00
2019-02-17T12:21:03.210Z,9.47
2019-02-17T12:23:39.132Z,13.93
2019-02-17T12:26:15.834Z,10.43
2019-02-17T12:28:56.234Z,10.33
2019-02-17T12:31:30.364Z,11.33
2019-02-17T12:33:59.958Z,9.80
2019-02-17T12:36:29.833Z,10.20
2019-02-17T12:38:59.105Z,12.90
2019-02-17T12:41:30.254Z,11.33
2019-02-17T12:43:59.478Z,9.70
2019-02-17T12:46:28.769Z,11.03
2019-02-17T12:48:58.101Z,10.00
2019-02-17T12:51:27.393Z,10.43
2019-02-17T12:53:56.745Z,11.53
2019-02-17T12:56:27.949Z,11.00
2019-02-17T12:58:57.245Z,11.10
2019-02-17T13:01:26.585Z,11.53
2019-02-17T13:03:55.877Z,12.90
2019-02-17T13:06:26.671Z,12.53
2019-02-17T13:08:56.038Z,13.23
2019-02-17T13:11:25.405Z,13.33
2019-02-17T13:13:54.709Z,12.63
2019-02-17T13:16:23.992Z,12.37
2019-02-17T13:18:53.353Z,12.43
2019-02-17T13:21:22.651Z,11.83
2019-02-17T13:23:51.904Z,12.77
2019-02-17T13:26:21.199Z,12.07
2019-02-17T13:28:51.160Z,12.43
2019-02-17T13:31:20.453Z,11.13
2019-02-17T13:33:50.359Z,11.57
2019-02-17T13:36:20.224Z,13.60
2019-02-17T13:38:49.461Z,12.40
2019-02-17T13:41:19.428Z,13.00
2019-02-17T13:43:49.504Z,12.60
2019-02-17T13:46:18.768Z,12.33
2019-02-17T13:48:48.932Z,11.00
2019-02-17T13:51:18.536Z,11.53
2019-02-17T13:53:48.368Z,13.10
2019-02-17T13:56:18.244Z,12.57
2019-02-17T13:58:47.550Z,10.77
2019-02-17T14:01:16.900Z,11.17
2019-02-17T14:03:48.849Z,11.00
2019-02-17T14:06:17.312Z,11.67
2019-02-17T14:08:46.680Z,11.00
2019-02-17T14:11:15.948Z,12.40
2019-02-17T14:13:45.244Z,12.27
2019-02-17T14:16:14.500Z,11.00
2019-02-17T14:18:43.849Z,10.40
2019-02-17T14:21:13.116Z,10.97
2019-02-17T14:23:42.875Z,9.53
2019-02-17T14:26:12.692Z,12.23
2019-02-17T14:28:42.107Z,11.20
2019-02-17T14:31:12.190Z,10.53
2019-02-17T14:33:42.179Z,9.60
2019-02-17T14:36:12.109Z,9.83
2019-02-17T14:38:41.904Z,10.00
2019-02-17T14:41:11.637Z,10.07
2019-02-17T14:43:42.024Z,9.47
2019-02-17T14:46:11.928Z,9.60
2019-02-17T14:48:41.505Z,9.63
2019-02-17T14:51:11.102Z,10.03
2019-02-17T14:53:40.352Z,9.87
2019-02-17T14:56:10.438Z,9.57
2019-02-17T14:58:40.504Z,9.10
2019-02-17T15:01:10.024Z,9.43
2019-02-17T15:03:39.616Z,8.83
2019-02-17T15:06:09.516Z,10.47
2019-02-17T15:08:39.564Z,11.30
2019-02-17T15:11:08.868Z,14.60
2019-02-17T15:13:38.177Z,9.47
2019-02-17T15:16:07.928Z,9.90
2019-02-17T15:18:37.604Z,9.13
2019-02-17T15:21:07.356Z,9.87
2019-02-17T15:23:37.044Z,10.73
2019-02-17T15:26:06.351Z,11.93
2019-02-17T15:28:35.611Z,10.00
2019-02-17T15:31:05.037Z,11.17
2019-02-17T15:33:34.315Z,10.40
2019-02-17T15:36:03.609Z,10.13
2019-02-17T15:38:32.863Z,11.77
2019-02-17T15:41:02.153Z,11.57
2019-02-17T15:43:31.495Z,11.23
2019-02-17T15:46:00.778Z,10.70
2019-02-17T15:48:30.055Z,11.43
2019-02-17T15:51:06.249Z,10.73
2019-02-17T15:53:31.110Z,10.50
2019-02-17T15:56:01.594Z,10.83
2019-02-17T15:58:31.806Z,21.37
2019-02-17T16:01:01.067Z,12.20
2019-02-17T16:03:30.471Z,15.53
2019-02-17T16:05:59.731Z,13.10
2019-02-17T16:08:28.986Z,13.43
2019-02-17T16:10:58.295Z,12.57
2019-02-17T16:13:27.659Z,12.13
2019-02-17T16:15:56.957Z,16.83
2019-02-17T16:18:26.211Z,13.77
2019-02-17T16:20:56.303Z,15.13
2019-02-17T16:23:25.550Z,12.13
2019-02-17T16:25:54.850Z,16.23
2019-02-17T16:28:24.163Z,16.47
2019-02-17T16:30:53.447Z,13.43
2019-02-17T16:33:22.756Z,13.60
2019-02-17T16:35:52.009Z,14.27
2019-02-17T16:38:21.650Z,12.30
2019-02-17T16:40:50.883Z,15.23
2019-02-17T16:43:20.173Z,20.93
2019-02-17T16:45:49.410Z,14.53
2019-02-17T16:48:18.666Z,17.33
2019-02-17T16:50:48.050Z,16.63
2019-02-17T16:53:17.226Z,23.47
2019-02-17T16:55:46.818Z,14.17
2019-02-17T16:58:16.126Z,13.43
2019-02-17T17:00:45.418Z,13.93
2019-02-17T17:03:14.769Z,12.27
2019-02-17T17:05:44.022Z,13.23
2019-02-17T17:08:13.424Z,18.87
2019-02-17T17:10:42.624Z,14.33
2019-02-17T17:13:11.918Z,17.83
2019-02-17T17:15:41.179Z,15.63
2019-02-17T17:18:10.473Z,14.73
2019-02-17T17:20:39.717Z,15.10
2019-02-17T17:23:09.850Z,13.07
2019-02-17T17:25:39.589Z,19.23
2019-02-17T17:28:09.637Z,22.50
2019-02-17T17:30:38.893Z,20.87
2019-02-17T17:33:08.166Z,20.37
2019-02-17T17:35:37.540Z,14.00
2019-02-17T17:38:06.833Z,14.00
2019-02-17T17:40:36.235Z,13.80
2019-02-17T17:43:05.517Z,13.30
2019-02-17T17:45:34.901Z,24.83
2019-02-17T17:48:04.204Z,18.47
2019-02-17T17:50:33.497Z,23.73
2019-02-17T17:53:02.745Z,15.03
2019-02-17T17:55:32.081Z,17.47
2019-02-17T17:58:01.357Z,29.53
2019-02-17T18:00:32.223Z,32.90
2019-02-17T18:03:01.509Z,47.43
2019-02-17T18:05:30.780Z,57.63
2019-02-17T18:08:00.429Z,33.47
2019-02-17T18:10:29.816Z,42.00
2019-02-17T18:12:59.144Z,33.97
2019-02-17T18:15:28.433Z,34.57
2019-02-17T18:17:57.795Z,26.70
2019-02-17T18:20:27.540Z,32.93
2019-02-17T18:22:56.804Z,27.27
2019-02-17T18:25:26.064Z,18.47
2019-02-17T18:27:55.408Z,19.90
2019-02-17T18:30:24.728Z,20.87
2019-02-17T18:32:54.100Z,21.50
2019-02-17T18:35:23.392Z,19.73
2019-02-17T18:37:52.644Z,21.70
2019-02-17T18:40:21.940Z,20.80
2019-02-17T18:42:51.239Z,19.80
2019-02-17T18:45:20.484Z,22.33
2019-02-17T18:47:49.859Z,24.97
2019-02-17T18:50:19.123Z,18.60
2019-02-17T18:52:48.371Z,17.20
2019-02-17T18:55:18.282Z,16.17
2019-02-17T18:57:50.434Z,17.97
2019-02-17T19:00:18.955Z,17.43
2019-02-17T19:02:48.327Z,17.67
2019-02-17T19:05:20.022Z,23.40
2019-02-17T19:07:48.528Z,31.90
2019-02-17T19:10:17.908Z,20.63
2019-02-17T19:12:47.240Z,22.87
2019-02-17T19:15:16.599Z,20.73
2019-02-17T19:17:45.896Z,19.27
2019-02-17T19:20:17.201Z,23.47
2019-02-17T19:22:46.492Z,28.77
2019-02-17T19:25:15.791Z,28.20
2019-02-17T19:27:45.052Z,28.97
2019-02-17T19:30:14.854Z,30.10
2019-02-17T19:32:44.117Z,35.07
2019-02-17T19:35:13.748Z,29.07
2019-02-17T19:37:43.125Z,28.00
2019-02-17T19:40:13.003Z,35.20
2019-02-17T19:42:42.284Z,34.93
2019-02-17T19:45:12.389Z,37.57
2019-02-17T19:47:41.791Z,36.43
2019-02-17T19:50:12.175Z,44.50
2019-02-17T19:52:41.431Z,36.83
2019-02-17T19:55:10.930Z,34.30
2019-02-17T19:57:40.267Z,33.00
2019-02-17T20:00:11.083Z,33.03
2019-02-17T20:03:14.867Z,31.80
2019-02-17T20:05:52.079Z,32.57
2019-02-17T20:08:17.643Z,48.50
2019-02-17T20:10:46.911Z,40.37
2019-02-17T20:13:16.215Z,46.43
2019-02-17T20:15:45.479Z,55.70
2019-02-17T20:18:14.726Z,49.70
2019-02-17T20:20:44.033Z,50.67
2019-02-17T20:23:13.280Z,60.30
2019-02-17T20:25:42.612Z,69.80
2019-02-17T20:28:11.978Z,60.20
2019-02-17T20:30:41.314Z,58.50
2019-02-17T20:33:10.707Z,56.67
2019-02-17T20:35:39.967Z,43.00
2019-02-17T20:38:09.188Z,44.87
2019-02-17T20:40:38.462Z,42.80
2019-02-17T20:43:07.708Z,38.13
2019-02-17T20:45:37.072Z,35.93
2019-02-17T20:48:06.314Z,40.00
2019-02-17T20:50:35.586Z,39.17
2019-02-17T20:53:04.852Z,40.07
2019-02-17T20:55:34.018Z,39.27
2019-02-17T20:58:03.319Z,39.40
2019-02-17T21:00:32.606Z,38.03
2019-02-17T21:03:01.967Z,35.73
2019-02-17T21:05:31.334Z,39.77
2019-02-17T21:08:00.630Z,35.07
2019-02-17T21:10:29.955Z,35.67
2019-02-17T21:12:59.231Z,35.03
2019-02-17T21:15:28.494Z,31.27
2019-02-17T21:17:57.745Z,31.73
2019-02-17T21:20:27.207Z,31.53
2019-02-17T21:22:56.506Z,25.23
2019-02-17T21:25:25.865Z,22.07
2019-02-17T21:27:55.050Z,23.33
2019-02-17T21:30:24.381Z,20.00
2019-02-17T21:32:53.678Z,18.07
2019-02-17T21:35:23.118Z,26.67
2019-02-17T21:37:52.377Z,23.97
2019-02-17T21:40:21.668Z,23.67
2019-02-17T21:42:51.034Z,22.67
2019-02-17T21:45:20.546Z,22.93
2019-02-17T21:47:49.810Z,22.60
2019-02-17T21:50:19.145Z,23.30
2019-02-17T21:52:48.450Z,24.30
2019-02-17T21:55:17.718Z,23.23
2019-02-17T21:57:47.069Z,22.90
2019-02-17T22:00:16.781Z,25.07
2019-02-17T22:02:46.041Z,28.40
2019-02-17T22:05:15.650Z,32.20
2019-02-17T22:07:45.015Z,25.53
2019-02-17T22:10:14.723Z,26.13
2019-02-17T22:12:44.001Z,24.53
2019-02-17T22:15:14.667Z,23.73
2019-02-17T22:17:43.950Z,23.43
2019-02-17T22:20:13.306Z,24.50
2019-02-17T22:22:42.665Z,21.67
2019-02-17T22:25:11.930Z,22.77
2019-02-17T22:27:41.292Z,21.70
2019-02-17T22:30:10.732Z,23.00
2019-02-17T22:32:39.967Z,24.13
2019-02-17T22:35:09.465Z,21.67
2019-02-17T22:37:38.797Z,19.00
2019-02-17T22:40:08.800Z,23.47
2019-02-17T22:42:38.180Z,26.30
2019-02-17T22:45:07.852Z,26.67
2019-02-17T22:47:37.126Z,23.73
2019-02-17T22:50:07.640Z,19.83
2019-02-17T22:52:37.004Z,21.53
2019-02-17T22:55:07.300Z,19.87
2019-02-17T22:57:36.644Z,18.23
2019-02-17T23:00:24.832Z,17.43
2019-02-17T23:02:54.224Z,17.83
2019-02-17T23:05:23.604Z,18.50
2019-02-17T23:07:52.966Z,17.50
2019-02-17T23:10:22.240Z,18.57
2019-02-17T23:12:51.572Z,18.97
2019-02-17T23:15:20.956Z,21.33
2019-02-17T23:17:50.223Z,21.73
2019-02-17T23:20:19.520Z,21.20
2019-02-17T23:22:48.903Z,21.13
2019-02-17T23:25:18.392Z,18.27
2019-02-17T23:27:47.931Z,20.87
2019-02-17T23:30:17.287Z,24.73
2019-02-17T23:32:46.584Z,22.77
2019-02-17T23:35:15.847Z,20.40
2019-02-17T23:37:45.201Z,22.60
2019-02-17T23:40:14.411Z,19.67
2019-02-17T23:42:43.775Z,22.00
2019-02-17T23:45:13.429Z,22.07
2019-02-17T23:47:42.839Z,20.93
2019-02-17T23:50:12.507Z,20.90
2019-02-17T23:52:42.393Z,20.70
2019-02-17T23:55:11.762Z,22.77
2019-02-17T23:57:41.447Z,22.90
